sensor_id;sensor_type;location;lat;lon;timestamp;pressure;altitude;pressure_sealevel;temperature;humidity
2000;BME280;1001;48.87406500;9.59633600;2023-02-11T00:00:16;96930.38;;;-0.65;82.39
2000;BME280;1001;48.87406500;9.59633600;2023-02-11T00:02:43;96925.81;;;-0.61;81.60
2000;BME280;1001;48.87406500;9.59633600;2023-02-11T00:05:10;96924.66;;;-0.57;82.20
2000;BME280;1001;48.87406500;9.59633600;2023-02-11T00:07:37;96921.63;;;-0.51;81.83
2000;BME280;1001;48.87406500;9.59633600;2023-02-11T00:10:04;96919.75;;;-0.49;81.27
2000;BME280;1001;48.87406500;9.59633600;2023-02-11T00:12:32;96927.00;;;-0.43;80.45
2000;BME280;1001;48.87406500;9.59633600;2023-02-11T00:15:00;96930.03;;;-0.49;81.30
2000;BME280;1001;48.87406500;9.59633600;2023-02-11T00:17:26;96923.13;;;-0.49;80.80
2000;BME280;1001;48.87406500;9.59633600;2023-02-11T00:19:53;96920.09;;;-0.54;81.56
2000;BME280;1001;48.87406500;9.59633600;2023-02-11T00:22:20;96913.69;;;-0.48;81.44
2000;BME280;1001;48.87406500;9.59633600;2023-02-11T00:24:46;96912.75;;;-0.47;80.83
2000;BME280;1001;48.87406500;9.59633600;2023-02-11T00:27:13;96918.00;;;-0.49;80.94
2000;BME280;1001;48.87406500;9.59633600;2023-02-11T00:29:39;96912.84;;;-0.49;80.50
2000;BME280;1001;48.87406500;9.59633600;2023-02-11T00:32:08;96917.19;;;-0.38;79.85
2000;BME280;1001;48.87406500;9.59633600;2023-02-11T00:34:35;96914.25;;;-0.45;79.56
2000;BME280;1001;48.87406500;9.59633600;2023-02-11T00:37:02;96917.28;;;-0.40;79.55
2000;BME280;1001;48.87406500;9.59633600;2023-02-11T00:39:29;96913.47;;;-0.45;79.71
2000;BME280;1001;48.87406500;9.59633600;2023-02-11T00:41:56;96909.38;;;-0.48;79.92
2000;BME280;1001;48.87406500;9.59633600;2023-02-11T00:44:23;96912.03;;;-0.49;79.86
2000;BME280;1001;48.87406500;9.59633600;2023-02-11T00:46:49;96908.19;;;-0.44;79.75
2000;BME280;1001;48.87406500;9.59633600;2023-02-11T00:49:17;96902.50;;;-0.47;79.63
2000;BME280;1001;48.87406500;9.59633600;2023-02-11T00:51:44;96908.06;;;-0.42;79.96
2000;BME280;1001;48.87406500;9.59633600;2023-02-11T00:54:10;96912.06;;;-0.38;79.51
2000;BME280;1001;48.87406500;9.59633600;2023-02-11T00:56:37;96905.28;;;-0.50;80.10
2000;BME280;1001;48.87406500;9.59633600;2023-02-11T00:59:04;96896.06;;;-0.53;79.82
2000;BME280;1001;48.87406500;9.59633600;2023-02-11T01:01:30;96899.09;;;-0.48;80.51
2000;BME280;1001;48.87406500;9.59633600;2023-02-11T01:03:57;96891.47;;;-0.49;79.80
2000;BME280;1001;48.87406500;9.59633600;2023-02-11T01:06:25;96884.13;;;-0.54;80.10
2000;BME280;1001;48.87406500;9.59633600;2023-02-11T01:08:51;96872.72;;;-0.50;80.35
2000;BME280;1001;48.87406500;9.59633600;2023-02-11T01:11:19;96869.31;;;-0.50;80.29
2000;BME280;1001;48.87406500;9.59633600;2023-02-11T01:13:46;96864.03;;;-0.49;79.54
2000;BME280;1001;48.87406500;9.59633600;2023-02-11T01:16:14;96853.31;;;-0.43;79.52
2000;BME280;1001;48.87406500;9.59633600;2023-02-11T01:18:41;96848.75;;;-0.50;79.90
2000;BME280;1001;48.87406500;9.59633600;2023-02-11T01:21:08;96848.88;;;-0.41;79.67
2000;BME280;1001;48.87406500;9.59633600;2023-02-11T01:23:36;96849.44;;;-0.37;79.33
2000;BME280;1001;48.87406500;9.59633600;2023-02-11T01:26:03;96848.75;;;-0.39;79.90
2000;BME280;1001;48.87406500;9.59633600;2023-02-11T01:28:31;96850.03;;;-0.45;79.47
2000;BME280;1001;48.87406500;9.59633600;2023-02-11T01:30:58;96844.44;;;-0.50;80.05
2000;BME280;1001;48.87406500;9.59633600;2023-02-11T01:33:25;96850.38;;;-0.49;81.12
2000;BME280;1001;48.87406500;9.59633600;2023-02-11T01:35:52;96840.81;;;-0.58;81.28
2000;BME280;1001;48.87406500;9.59633600;2023-02-11T01:38:21;96858.56;;;-0.44;80.40
2000;BME280;1001;48.87406500;9.59633600;2023-02-11T01:40:52;96865.56;;;-0.46;80.64
2000;BME280;1001;48.87406500;9.59633600;2023-02-11T01:43:19;96864.53;;;-0.55;81.06
2000;BME280;1001;48.87406500;9.59633600;2023-02-11T01:45:56;96871.88;;;-0.61;81.84
2000;BME280;1001;48.87406500;9.59633600;2023-02-11T01:48:27;96863.94;;;-0.58;81.83
2000;BME280;1001;48.87406500;9.59633600;2023-02-11T01:50:59;96866.41;;;-0.57;81.44
2000;BME280;1001;48.87406500;9.59633600;2023-02-11T01:53:27;96858.22;;;-0.62;81.03
2000;BME280;1001;48.87406500;9.59633600;2023-02-11T01:56:14;96856.13;;;-0.57;81.94
2000;BME280;1001;48.87406500;9.59633600;2023-02-11T01:59:05;96856.13;;;-0.57;81.20
2000;BME280;1001;48.87406500;9.59633600;2023-02-11T02:01:34;96849.69;;;-0.51;81.34
2000;BME280;1001;48.87406500;9.59633600;2023-02-11T02:04:05;96852.25;;;-0.51;81.51
2000;BME280;1001;48.87406500;9.59633600;2023-02-11T02:06:34;96853.31;;;-0.54;81.32
2000;BME280;1001;48.87406500;9.59633600;2023-02-11T02:09:07;96849.59;;;-0.50;81.89
2000;BME280;1001;48.87406500;9.59633600;2023-02-11T02:11:36;96841.16;;;-0.52;81.30
2000;BME280;1001;48.87406500;9.59633600;2023-02-11T02:14:03;96834.16;;;-0.50;81.81
2000;BME280;1001;48.87406500;9.59633600;2023-02-11T02:16:33;96845.97;;;-0.47;82.22
2000;BME280;1001;48.87406500;9.59633600;2023-02-11T02:19:16;96848.03;;;-0.41;82.09
2000;BME280;1001;48.87406500;9.59633600;2023-02-11T02:25:35;96838.34;;;-0.27;81.57
2000;BME280;1001;48.87406500;9.59633600;2023-02-11T02:28:22;96837.97;;;-0.22;80.98
2000;BME280;1001;48.87406500;9.59633600;2023-02-11T02:31:15;96832.50;;;-0.29;81.35
2000;BME280;1001;48.87406500;9.59633600;2023-02-11T02:33:55;96821.50;;;-0.20;79.69
2000;BME280;1001;48.87406500;9.59633600;2023-02-11T02:36:30;96814.56;;;-0.08;80.86
2000;BME280;1001;48.87406500;9.59633600;2023-02-11T02:39:04;96806.72;;;-0.07;80.21
2000;BME280;1001;48.87406500;9.59633600;2023-02-11T02:41:33;96791.06;;;-0.04;80.12
2000;BME280;1001;48.87406500;9.59633600;2023-02-11T02:44:01;96795.63;;;-0.07;80.15
2000;BME280;1001;48.87406500;9.59633600;2023-02-11T02:46:29;96803.69;;;-0.01;80.32
2000;BME280;1001;48.87406500;9.59633600;2023-02-11T02:48:59;96786.16;;;-0.07;81.60
2000;BME280;1001;48.87406500;9.59633600;2023-02-11T02:51:44;96787.81;;;-0.06;81.17
2000;BME280;1001;48.87406500;9.59633600;2023-02-11T02:54:38;96785.69;;;-0.01;81.55
2000;BME280;1001;48.87406500;9.59633600;2023-02-11T02:57:17;96786.75;;;-0.03;80.96
2000;BME280;1001;48.87406500;9.59633600;2023-02-11T03:00:00;96787.44;;;-0.01;80.49
2000;BME280;1001;48.87406500;9.59633600;2023-02-11T03:02:32;96789.13;;;0.10;81.39
2000;BME280;1001;48.87406500;9.59633600;2023-02-11T03:05:07;96792.78;;;0.07;80.85
2000;BME280;1001;48.87406500;9.59633600;2023-02-11T03:07:40;96799.00;;;0.05;81.26
2000;BME280;1001;48.87406500;9.59633600;2023-02-11T03:10:12;96790.31;;;0.06;81.29
2000;BME280;1001;48.87406500;9.59633600;2023-02-11T03:12:41;96793.22;;;0.12;80.05
2000;BME280;1001;48.87406500;9.59633600;2023-02-11T03:15:10;96779.56;;;0.12;80.81
2000;BME280;1001;48.87406500;9.59633600;2023-02-11T03:17:40;96778.91;;;0.19;81.34
2000;BME280;1001;48.87406500;9.59633600;2023-02-11T03:20:12;96777.75;;;0.23;81.10
2000;BME280;1001;48.87406500;9.59633600;2023-02-11T03:22:43;96772.53;;;0.34;81.23
2000;BME280;1001;48.87406500;9.59633600;2023-02-11T03:25:12;96776.03;;;0.33;81.07
2000;BME280;1001;48.87406500;9.59633600;2023-02-11T03:27:44;96775.13;;;0.34;81.08
2000;BME280;1001;48.87406500;9.59633600;2023-02-11T03:30:15;96780.84;;;0.38;80.83
2000;BME280;1001;48.87406500;9.59633600;2023-02-11T03:32:48;96784.28;;;0.48;80.46
2000;BME280;1001;48.87406500;9.59633600;2023-02-11T03:35:20;96779.88;;;0.59;79.78
2000;BME280;1001;48.87406500;9.59633600;2023-02-11T03:37:50;96788.78;;;0.55;79.19
2000;BME280;1001;48.87406500;9.59633600;2023-02-11T03:40:20;96793.56;;;0.60;80.25
2000;BME280;1001;48.87406500;9.59633600;2023-02-11T03:42:50;96794.19;;;0.52;80.13
2000;BME280;1001;48.87406500;9.59633600;2023-02-11T03:45:21;96793.56;;;0.60;79.95
2000;BME280;1001;48.87406500;9.59633600;2023-02-11T03:47:53;96804.00;;;0.58;79.86
2000;BME280;1001;48.87406500;9.59633600;2023-02-11T03:50:23;96804.00;;;0.58;79.32
2000;BME280;1001;48.87406500;9.59633600;2023-02-11T03:52:52;96803.03;;;0.59;79.00
2000;BME280;1001;48.87406500;9.59633600;2023-02-11T03:55:20;96805.22;;;0.64;79.59
2000;BME280;1001;48.87406500;9.59633600;2023-02-11T03:57:50;96810.19;;;0.77;79.20
2000;BME280;1001;48.87406500;9.59633600;2023-02-11T04:00:17;96806.41;;;0.81;78.15
2000;BME280;1001;48.87406500;9.59633600;2023-02-11T04:02:44;96805.63;;;0.80;77.89
2000;BME280;1001;48.87406500;9.59633600;2023-02-11T04:05:13;96808.63;;;0.85;77.75
2000;BME280;1001;48.87406500;9.59633600;2023-02-11T04:07:42;96805.69;;;0.90;78.47
2000;BME280;1001;48.87406500;9.59633600;2023-02-11T04:10:10;96811.50;;;0.92;78.31
2000;BME280;1001;48.87406500;9.59633600;2023-02-11T04:12:37;96810.06;;;0.99;78.14
2000;BME280;1001;48.87406500;9.59633600;2023-02-11T04:15:04;96803.84;;;1.01;78.93
2000;BME280;1001;48.87406500;9.59633600;2023-02-11T04:17:31;96805.72;;;0.99;77.44
2000;BME280;1001;48.87406500;9.59633600;2023-02-11T04:19:58;96799.88;;;0.97;78.95
2000;BME280;1001;48.87406500;9.59633600;2023-02-11T04:22:24;96795.75;;;0.85;79.30
2000;BME280;1001;48.87406500;9.59633600;2023-02-11T04:24:52;96799.50;;;0.81;79.63
2000;BME280;1001;48.87406500;9.59633600;2023-02-11T04:27:19;96796.63;;;0.75;80.43
2000;BME280;1001;48.87406500;9.59633600;2023-02-11T04:29:45;96798.69;;;0.81;79.83
2000;BME280;1001;48.87406500;9.59633600;2023-02-11T04:32:13;96810.38;;;0.85;79.09
2000;BME280;1001;48.87406500;9.59633600;2023-02-11T04:34:40;96804.56;;;0.83;79.93
2000;BME280;1001;48.87406500;9.59633600;2023-02-11T04:37:06;96804.66;;;0.81;79.21
2000;BME280;1001;48.87406500;9.59633600;2023-02-11T04:39:34;96811.47;;;0.82;80.46
2000;BME280;1001;48.87406500;9.59633600;2023-02-11T04:42:02;96792.63;;;0.82;80.49
2000;BME280;1001;48.87406500;9.59633600;2023-02-11T04:44:29;96797.63;;;0.83;80.26
2000;BME280;1001;48.87406500;9.59633600;2023-02-11T04:46:55;96800.25;;;0.93;80.52
2000;BME280;1001;48.87406500;9.59633600;2023-02-11T04:49:22;96783.56;;;0.87;80.56
2000;BME280;1001;48.87406500;9.59633600;2023-02-11T04:51:49;96787.22;;;0.85;80.77
2000;BME280;1001;48.87406500;9.59633600;2023-02-11T04:54:16;96780.56;;;0.82;80.98
2000;BME280;1001;48.87406500;9.59633600;2023-02-11T04:56:43;96781.78;;;0.88;80.45
2000;BME280;1001;48.87406500;9.59633600;2023-02-11T04:59:11;96789.66;;;0.86;80.41
2000;BME280;1001;48.87406500;9.59633600;2023-02-11T05:01:37;96788.72;;;0.87;80.55
2000;BME280;1001;48.87406500;9.59633600;2023-02-11T05:04:04;96783.91;;;1.03;80.28
2000;BME280;1001;48.87406500;9.59633600;2023-02-11T05:06:31;96767.63;;;1.03;80.86
2000;BME280;1001;48.87406500;9.59633600;2023-02-11T05:08:57;96770.34;;;1.01;80.36
2000;BME280;1001;48.87406500;9.59633600;2023-02-11T05:11:25;96772.66;;;1.04;81.45
2000;BME280;1001;48.87406500;9.59633600;2023-02-11T05:13:51;96764.00;;;1.05;81.40
2000;BME280;1001;48.87406500;9.59633600;2023-02-11T05:16:19;96761.00;;;1.00;80.91
2000;BME280;1001;48.87406500;9.59633600;2023-02-11T05:18:46;96764.94;;;1.04;81.64
2000;BME280;1001;48.87406500;9.59633600;2023-02-11T05:21:16;96762.00;;;1.09;81.70
2000;BME280;1001;48.87406500;9.59633600;2023-02-11T05:23:43;96756.56;;;1.12;81.30
2000;BME280;1001;48.87406500;9.59633600;2023-02-11T05:26:11;96747.72;;;1.05;81.58
2000;BME280;1001;48.87406500;9.59633600;2023-02-11T05:28:38;96760.34;;;1.08;81.72
2000;BME280;1001;48.87406500;9.59633600;2023-02-11T05:31:05;96763.84;;;1.07;82.00
2000;BME280;1001;48.87406500;9.59633600;2023-02-11T05:33:33;96750.28;;;1.05;81.53
2000;BME280;1001;48.87406500;9.59633600;2023-02-11T05:36:01;96758.31;;;1.11;82.22
2000;BME280;1001;48.87406500;9.59633600;2023-02-11T05:38:28;96747.69;;;0.95;82.84
2000;BME280;1001;48.87406500;9.59633600;2023-02-11T05:40:55;96747.72;;;1.05;82.80
2000;BME280;1001;48.87406500;9.59633600;2023-02-11T05:43:22;96740.81;;;1.05;82.69
2000;BME280;1001;48.87406500;9.59633600;2023-02-11T05:45:49;96741.00;;;1.13;82.48
2000;BME280;1001;48.87406500;9.59633600;2023-02-11T05:48:15;96753.84;;;1.04;82.28
2000;BME280;1001;48.87406500;9.59633600;2023-02-11T05:50:44;96748.41;;;1.07;82.80
2000;BME280;1001;48.87406500;9.59633600;2023-02-11T05:53:11;96747.06;;;1.12;83.24
2000;BME280;1001;48.87406500;9.59633600;2023-02-11T05:55:38;96743.69;;;1.12;82.99
2000;BME280;1001;48.87406500;9.59633600;2023-02-11T05:58:05;96752.41;;;1.20;83.73
2000;BME280;1001;48.87406500;9.59633600;2023-02-11T06:00:32;96764.44;;;1.10;83.65
2000;BME280;1001;48.87406500;9.59633600;2023-02-11T06:02:59;96763.22;;;1.14;83.78
2000;BME280;1001;48.87406500;9.59633600;2023-02-11T06:05:25;96761.72;;;1.12;82.88
2000;BME280;1001;48.87406500;9.59633600;2023-02-11T06:07:53;96764.44;;;1.10;83.51
2000;BME280;1001;48.87406500;9.59633600;2023-02-11T06:10:20;96761.16;;;1.08;83.82
2000;BME280;1001;48.87406500;9.59633600;2023-02-11T06:12:47;96765.25;;;1.11;83.17
2000;BME280;1001;48.87406500;9.59633600;2023-02-11T06:15:13;96765.63;;;1.06;83.45
2000;BME280;1001;48.87406500;9.59633600;2023-02-11T06:17:40;96761.94;;;0.99;83.88
2000;BME280;1001;48.87406500;9.59633600;2023-02-11T06:20:08;96765.75;;;1.05;83.69
2000;BME280;1001;48.87406500;9.59633600;2023-02-11T06:22:35;96757.47;;;1.01;84.05
2000;BME280;1001;48.87406500;9.59633600;2023-02-11T06:25:03;96762.50;;;1.03;84.02
2000;BME280;1001;48.87406500;9.59633600;2023-02-11T06:27:30;96761.41;;;1.05;84.64
2000;BME280;1001;48.87406500;9.59633600;2023-02-11T06:29:57;96770.47;;;1.00;84.16
2000;BME280;1001;48.87406500;9.59633600;2023-02-11T06:32:23;96771.88;;;1.04;84.11
2000;BME280;1001;48.87406500;9.59633600;2023-02-11T06:34:51;96775.03;;;1.17;83.15
2000;BME280;1001;48.87406500;9.59633600;2023-02-11T06:37:18;96777.72;;;1.15;84.32
2000;BME280;1001;48.87406500;9.59633600;2023-02-11T06:39:44;96770.00;;;1.15;84.00
2000;BME280;1001;48.87406500;9.59633600;2023-02-11T06:42:12;96762.97;;;1.17;83.65
2000;BME280;1001;48.87406500;9.59633600;2023-02-11T06:44:39;96767.69;;;1.12;83.96
2000;BME280;1001;48.87406500;9.59633600;2023-02-11T06:47:06;96761.66;;;1.02;83.86
2000;BME280;1001;48.87406500;9.59633600;2023-02-11T06:49:32;96752.28;;;0.92;84.68
2000;BME280;1001;48.87406500;9.59633600;2023-02-11T06:51:59;96755.94;;;0.89;85.80
2000;BME280;1001;48.87406500;9.59633600;2023-02-11T06:54:26;96760.78;;;0.83;86.28
2000;BME280;1001;48.87406500;9.59633600;2023-02-11T06:56:52;96767.06;;;0.90;85.73
2000;BME280;1001;48.87406500;9.59633600;2023-02-11T06:59:20;96773.13;;;0.89;86.23
2000;BME280;1001;48.87406500;9.59633600;2023-02-11T07:01:47;96789.03;;;0.94;85.45
2000;BME280;1001;48.87406500;9.59633600;2023-02-11T07:04:13;96789.03;;;0.94;86.06
2000;BME280;1001;48.87406500;9.59633600;2023-02-11T07:06:40;96785.38;;;0.96;86.30
2000;BME280;1001;48.87406500;9.59633600;2023-02-11T07:09:07;96785.81;;;1.01;86.05
2000;BME280;1001;48.87406500;9.59633600;2023-02-11T07:11:34;96784.16;;;1.00;85.49
2000;BME280;1001;48.87406500;9.59633600;2023-02-11T07:14:02;96765.41;;;0.89;84.95
2000;BME280;1001;48.87406500;9.59633600;2023-02-11T07:16:34;96758.31;;;0.81;85.78
2000;BME280;1001;48.87406500;9.59633600;2023-02-11T07:19:01;96759.81;;;0.84;86.16
2000;BME280;1001;48.87406500;9.59633600;2023-02-11T07:21:27;96746.09;;;0.74;86.27
2000;BME280;1001;48.87406500;9.59633600;2023-02-11T07:23:54;96752.31;;;0.71;86.00
2000;BME280;1001;48.87406500;9.59633600;2023-02-11T07:26:22;96740.63;;;0.67;85.93
2000;BME280;1001;48.87406500;9.59633600;2023-02-11T07:28:51;96746.22;;;0.72;86.27
2000;BME280;1001;48.87406500;9.59633600;2023-02-11T07:31:19;96753.31;;;0.80;85.95
2000;BME280;1001;48.87406500;9.59633600;2023-02-11T07:33:48;96759.88;;;0.93;86.14
2000;BME280;1001;48.87406500;9.59633600;2023-02-11T07:36:16;96765.50;;;1.08;86.01
2000;BME280;1001;48.87406500;9.59633600;2023-02-11T07:38:43;96779.56;;;1.34;84.83
2000;BME280;1001;48.87406500;9.59633600;2023-02-11T07:41:12;96778.78;;;1.53;85.17
2000;BME280;1001;48.87406500;9.59633600;2023-02-11T07:43:40;96772.84;;;1.62;85.09
2000;BME280;1001;48.87406500;9.59633600;2023-02-11T07:46:08;96771.88;;;1.53;84.09
2000;BME280;1001;48.87406500;9.59633600;2023-02-11T07:48:35;96774.19;;;1.47;84.04
2000;BME280;1001;48.87406500;9.59633600;2023-02-11T07:51:08;96759.41;;;1.49;84.78
2000;BME280;1001;48.87406500;9.59633600;2023-02-11T07:53:35;96768.09;;;1.57;85.48
2000;BME280;1001;48.87406500;9.59633600;2023-02-11T07:56:03;96764.97;;;1.54;84.15
2000;BME280;1001;48.87406500;9.59633600;2023-02-11T07:58:30;96759.94;;;1.52;84.75
2000;BME280;1001;48.87406500;9.59633600;2023-02-11T08:01:00;96774.34;;;1.64;85.10
2000;BME280;1001;48.87406500;9.59633600;2023-02-11T08:03:26;96766.59;;;1.64;83.52
2000;BME280;1001;48.87406500;9.59633600;2023-02-11T08:05:53;96768.66;;;1.80;84.25
2000;BME280;1001;48.87406500;9.59633600;2023-02-11T08:08:21;96774.41;;;2.02;83.41
2000;BME280;1001;48.87406500;9.59633600;2023-02-11T08:10:48;96781.31;;;2.12;83.92
2000;BME280;1001;48.87406500;9.59633600;2023-02-11T08:13:14;96764.06;;;2.02;82.70
2000;BME280;1001;48.87406500;9.59633600;2023-02-11T08:15:41;96771.66;;;1.94;83.03
2000;BME280;1001;48.87406500;9.59633600;2023-02-11T08:18:08;96791.63;;;2.02;82.96
2000;BME280;1001;48.87406500;9.59633600;2023-02-11T08:20:34;96785.38;;;2.04;82.04
2000;BME280;1001;48.87406500;9.59633600;2023-02-11T08:23:01;96783.38;;;2.08;81.96
2000;BME280;1001;48.87406500;9.59633600;2023-02-11T08:25:29;96787.56;;;2.09;82.30
2000;BME280;1001;48.87406500;9.59633600;2023-02-11T08:27:55;96792.59;;;2.20;81.70
2000;BME280;1001;48.87406500;9.59633600;2023-02-11T08:30:22;96797.88;;;2.28;80.41
2000;BME280;1001;48.87406500;9.59633600;2023-02-11T08:32:49;96801.81;;;2.32;80.66
2000;BME280;1001;48.87406500;9.59633600;2023-02-11T08:35:16;96798.81;;;2.27;80.29
2000;BME280;1001;48.87406500;9.59633600;2023-02-11T08:37:43;96791.63;;;2.40;79.18
2000;BME280;1001;48.87406500;9.59633600;2023-02-11T08:40:10;96794.22;;;2.40;80.52
2000;BME280;1001;48.87406500;9.59633600;2023-02-11T08:42:38;96787.16;;;2.23;80.17
2000;BME280;1001;48.87406500;9.59633600;2023-02-11T08:45:05;96787.03;;;2.34;80.00
2000;BME280;1001;48.87406500;9.59633600;2023-02-11T08:47:32;96785.53;;;2.32;79.67
2000;BME280;1001;48.87406500;9.59633600;2023-02-11T08:49:59;96781.19;;;2.13;79.59
2000;BME280;1001;48.87406500;9.59633600;2023-02-11T08:52:25;96775.34;;;2.11;79.71
2000;BME280;1001;48.87406500;9.59633600;2023-02-11T08:54:52;96774.66;;;2.19;79.69
2000;BME280;1001;48.87406500;9.59633600;2023-02-11T08:57:19;96785.66;;;2.21;79.82
2000;BME280;1001;48.87406500;9.59633600;2023-02-11T08:59:47;96787.41;;;2.20;80.30
2000;BME280;1001;48.87406500;9.59633600;2023-02-11T09:02:13;96788.13;;;2.32;79.22
2000;BME280;1001;48.87406500;9.59633600;2023-02-11T09:04:40;96795.16;;;2.49;80.00
2000;BME280;1001;48.87406500;9.59633600;2023-02-11T09:07:07;96792.69;;;2.66;79.13
2000;BME280;1001;48.87406500;9.59633600;2023-02-11T09:09:34;96792.00;;;2.74;77.58
2000;BME280;1001;48.87406500;9.59633600;2023-02-11T09:12:00;96776.63;;;2.82;79.01
2000;BME280;1001;48.87406500;9.59633600;2023-02-11T09:14:27;96772.91;;;2.94;77.94
2000;BME280;1001;48.87406500;9.59633600;2023-02-11T09:16:55;96772.72;;;3.05;77.19
2000;BME280;1001;48.87406500;9.59633600;2023-02-11T09:19:22;96768.47;;;3.23;77.13
2000;BME280;1001;48.87406500;9.59633600;2023-02-11T09:21:49;96765.19;;;3.31;77.10
2000;BME280;1001;48.87406500;9.59633600;2023-02-11T09:24:15;96767.88;;;3.29;76.98
2000;BME280;1001;48.87406500;9.59633600;2023-02-11T09:26:43;96769.72;;;3.47;76.74
2000;BME280;1001;48.87406500;9.59633600;2023-02-11T09:29:11;96761.50;;;3.78;75.88
2000;BME280;1001;48.87406500;9.59633600;2023-02-11T09:31:37;96773.44;;;4.06;74.62
2000;BME280;1001;48.87406500;9.59633600;2023-02-11T09:34:05;96767.56;;;4.22;73.09
2000;BME280;1001;48.87406500;9.59633600;2023-02-11T09:36:34;96765.97;;;4.64;72.54
2000;BME280;1001;48.87406500;9.59633600;2023-02-11T09:39:04;96775.13;;;5.02;72.08
2000;BME280;1001;48.87406500;9.59633600;2023-02-11T09:41:44;96789.44;;;5.40;71.24
2000;BME280;1001;48.87406500;9.59633600;2023-02-11T09:44:21;96789.53;;;5.30;69.28
2000;BME280;1001;48.87406500;9.59633600;2023-02-11T09:46:53;96800.28;;;4.84;70.67
2000;BME280;1001;48.87406500;9.59633600;2023-02-11T09:49:25;96789.09;;;4.58;71.70
2000;BME280;1001;48.87406500;9.59633600;2023-02-11T09:52:00;96788.75;;;4.35;73.47
2000;BME280;1001;48.87406500;9.59633600;2023-02-11T09:54:35;96791.50;;;4.16;74.56
2000;BME280;1001;48.87406500;9.59633600;2023-02-11T09:57:03;96798.41;;;4.33;75.50
2000;BME280;1001;48.87406500;9.59633600;2023-02-11T09:59:30;96793.59;;;4.38;74.73
2000;BME280;1001;48.87406500;9.59633600;2023-02-11T10:02:01;96793.84;;;4.45;75.89
2000;BME280;1001;48.87406500;9.59633600;2023-02-11T10:04:43;96800.28;;;4.58;74.94
2000;BME280;1001;48.87406500;9.59633600;2023-02-11T10:07:21;96804.34;;;4.61;75.89
2000;BME280;1001;48.87406500;9.59633600;2023-02-11T10:10:03;96809.88;;;4.66;74.92
2000;BME280;1001;48.87406500;9.59633600;2023-02-11T10:12:46;96813.50;;;4.55;75.14
2000;BME280;1001;48.87406500;9.59633600;2023-02-11T10:15:24;96813.06;;;4.60;75.63
2000;BME280;1001;48.87406500;9.59633600;2023-02-11T10:18:24;96809.38;;;4.45;76.23
2000;BME280;1001;48.87406500;9.59633600;2023-02-11T10:21:07;96819.00;;;4.35;77.18
2000;BME280;1001;48.87406500;9.59633600;2023-02-11T10:23:40;96802.72;;;4.42;77.92
2000;BME280;1001;48.87406500;9.59633600;2023-02-11T10:26:11;96809.94;;;4.74;76.82
2000;BME280;1001;48.87406500;9.59633600;2023-02-11T10:28:39;96810.53;;;4.68;77.58
2000;BME280;1001;48.87406500;9.59633600;2023-02-11T10:31:10;96810.94;;;4.81;78.59
2000;BME280;1001;48.87406500;9.59633600;2023-02-11T10:33:42;96809.75;;;4.93;78.21
2000;BME280;1001;48.87406500;9.59633600;2023-02-11T10:36:12;96800.75;;;5.05;77.31
2000;BME280;1001;48.87406500;9.59633600;2023-02-11T10:38:39;96797.78;;;5.26;76.48
2000;BME280;1001;48.87406500;9.59633600;2023-02-11T10:41:09;96810.06;;;5.16;77.78
2000;BME280;1001;48.87406500;9.59633600;2023-02-11T10:43:36;96789.63;;;5.13;78.82
2000;BME280;1001;48.87406500;9.59633600;2023-02-11T10:46:03;96788.69;;;5.22;79.98
2000;BME280;1001;48.87406500;9.59633600;2023-02-11T10:48:42;96795.72;;;5.29;80.82
2000;BME280;1001;48.87406500;9.59633600;2023-02-11T10:51:19;96785.22;;;5.39;80.08
2000;BME280;1001;48.87406500;9.59633600;2023-02-11T10:53:47;96776.22;;;5.25;80.46
2000;BME280;1001;48.87406500;9.59633600;2023-02-11T10:56:21;96770.91;;;5.35;81.35
2000;BME280;1001;48.87406500;9.59633600;2023-02-11T10:59:00;96779.34;;;5.29;81.10
2000;BME280;1001;48.87406500;9.59633600;2023-02-11T11:01:38;96765.63;;;5.44;80.64
2000;BME280;1001;48.87406500;9.59633600;2023-02-11T11:04:05;96767.53;;;5.34;80.95
2000;BME280;1001;48.87406500;9.59633600;2023-02-11T11:06:33;96773.38;;;5.36;82.29
2000;BME280;1001;48.87406500;9.59633600;2023-02-11T11:09:00;96767.84;;;5.39;82.04
2000;BME280;1001;48.87406500;9.59633600;2023-02-11T11:11:27;96758.88;;;5.60;81.61
2000;BME280;1001;48.87406500;9.59633600;2023-02-11T11:13:56;96757.09;;;5.60;82.15
2000;BME280;1001;48.87406500;9.59633600;2023-02-11T11:16:24;96753.81;;;5.50;81.45
2000;BME280;1001;48.87406500;9.59633600;2023-02-11T11:18:52;96763.88;;;5.53;82.25
2000;BME280;1001;48.87406500;9.59633600;2023-02-11T11:21:22;96757.09;;;5.68;82.99
2000;BME280;1001;48.87406500;9.59633600;2023-02-11T11:23:54;96759.09;;;5.74;82.71
2000;BME280;1001;48.87406500;9.59633600;2023-02-11T11:26:22;96754.22;;;5.79;82.25
2000;BME280;1001;48.87406500;9.59633600;2023-02-11T11:28:52;96759.63;;;5.86;80.76
2000;BME280;1001;48.87406500;9.59633600;2023-02-11T11:31:22;96760.56;;;5.77;82.04
2000;BME280;1001;48.87406500;9.59633600;2023-02-11T11:33:50;96769.13;;;5.69;80.80
2000;BME280;1001;48.87406500;9.59633600;2023-02-11T11:36:20;96758.00;;;5.85;81.16
2000;BME280;1001;48.87406500;9.59633600;2023-02-11T11:38:51;96760.09;;;5.89;80.95
2000;BME280;1001;48.87406500;9.59633600;2023-02-11T11:41:24;96755.25;;;5.86;79.55
2000;BME280;1001;48.87406500;9.59633600;2023-02-11T11:43:56;96755.91;;;5.96;79.42
2000;BME280;1001;48.87406500;9.59633600;2023-02-11T11:46:25;96754.16;;;6.05;80.09
2000;BME280;1001;48.87406500;9.59633600;2023-02-11T11:48:56;96750.13;;;6.27;80.21
2000;BME280;1001;48.87406500;9.59633600;2023-02-11T11:51:26;96756.44;;;6.56;79.27
2000;BME280;1001;48.87406500;9.59633600;2023-02-11T11:53:57;96753.34;;;6.61;76.36
2000;BME280;1001;48.87406500;9.59633600;2023-02-11T11:56:29;96740.00;;;6.80;76.51
2000;BME280;1001;48.87406500;9.59633600;2023-02-11T11:58:59;96753.69;;;6.74;78.75
2000;BME280;1001;48.87406500;9.59633600;2023-02-11T12:01:33;96758.53;;;6.85;78.73
2000;BME280;1001;48.87406500;9.59633600;2023-02-11T12:04:29;96766.63;;;6.98;77.51